sensor_id;sensor_type;location;lat;lon;timestamp;P1;durP1;ratioP1;P2;durP2;ratioP2
15061;SDS011;7630;50.306;8.566;2022-12-07T00:02:01;35.60;;;28.87;;
15061;SDS011;7630;50.306;8.566;2022-12-07T00:06:03;32.43;;;27.60;;
15061;SDS011;7630;50.306;8.566;2022-12-07T00:10:06;32.10;;;27.33;;
15061;SDS011;7630;50.306;8.566;2022-12-07T00:14:09;31.10;;;25.57;;
15061;SDS011;7630;50.306;8.566;2022-12-07T00:18:12;33.53;;;25.33;;
15061;SDS011;7630;50.306;8.566;2022-12-07T00:22:13;30.13;;;26.07;;
15061;SDS011;7630;50.306;8.566;2022-12-07T00:26:21;31.73;;;23.07;;
15061;SDS011;7630;50.306;8.566;2022-12-07T00:30:21;31.67;;;22.10;;
15061;SDS011;7630;50.306;8.566;2022-12-07T00:34:23;27.47;;;22.77;;
15061;SDS011;7630;50.306;8.566;2022-12-07T00:38:24;31.27;;;25.70;;
15061;SDS011;7630;50.306;8.566;2022-12-07T00:42:31;26.60;;;20.90;;
15061;SDS011;7630;50.306;8.566;2022-12-07T00:46:32;27.07;;;22.90;;
15061;SDS011;7630;50.306;8.566;2022-12-07T00:50:33;33.50;;;23.50;;
15061;SDS011;7630;50.306;8.566;2022-12-07T00:54:35;28.40;;;22.87;;
15061;SDS011;7630;50.306;8.566;2022-12-07T00:58:36;23.77;;;21.23;;
15061;SDS011;7630;50.306;8.566;2022-12-07T01:02:37;24.77;;;20.70;;
15061;SDS011;7630;50.306;8.566;2022-12-07T01:06:38;22.23;;;17.80;;
15061;SDS011;7630;50.306;8.566;2022-12-07T01:10:39;23.67;;;19.17;;
15061;SDS011;7630;50.306;8.566;2022-12-07T01:14:41;20.40;;;15.97;;
15061;SDS011;7630;50.306;8.566;2022-12-07T01:18:42;18.10;;;14.93;;
15061;SDS011;7630;50.306;8.566;2022-12-07T01:22:45;19.43;;;15.10;;
15061;SDS011;7630;50.306;8.566;2022-12-07T01:26:49;17.87;;;13.90;;
15061;SDS011;7630;50.306;8.566;2022-12-07T01:35:04;17.53;;;13.37;;
15061;SDS011;7630;50.306;8.566;2022-12-07T01:39:06;18.23;;;14.43;;
15061;SDS011;7630;50.306;8.566;2022-12-07T01:43:18;17.43;;;13.20;;
15061;SDS011;7630;50.306;8.566;2022-12-07T01:47:19;17.20;;;13.60;;
15061;SDS011;7630;50.306;8.566;2022-12-07T01:51:20;16.33;;;12.00;;
15061;SDS011;7630;50.306;8.566;2022-12-07T01:55:21;14.83;;;12.43;;
15061;SDS011;7630;50.306;8.566;2022-12-07T01:59:23;14.10;;;10.43;;
15061;SDS011;7630;50.306;8.566;2022-12-07T02:03:31;13.47;;;11.30;;
15061;SDS011;7630;50.306;8.566;2022-12-07T02:07:36;10.63;;;9.53;;
15061;SDS011;7630;50.306;8.566;2022-12-07T02:11:39;11.93;;;10.27;;
15061;SDS011;7630;50.306;8.566;2022-12-07T02:20:06;10.77;;;9.40;;
15061;SDS011;7630;50.306;8.566;2022-12-07T02:33:35;9.40;;;8.47;;
15061;SDS011;7630;50.306;8.566;2022-12-07T02:41:50;11.23;;;10.03;;
15061;SDS011;7630;50.306;8.566;2022-12-07T02:45:50;13.80;;;12.40;;
15061;SDS011;7630;50.306;8.566;2022-12-07T02:49:54;12.30;;;11.00;;
15061;SDS011;7630;50.306;8.566;2022-12-07T02:53:56;15.77;;;12.00;;
15061;SDS011;7630;50.306;8.566;2022-12-07T02:58:02;16.90;;;12.57;;
15061;SDS011;7630;50.306;8.566;2022-12-07T03:06:39;15.33;;;13.60;;
15061;SDS011;7630;50.306;8.566;2022-12-07T03:10:54;16.07;;;14.43;;
15061;SDS011;7630;50.306;8.566;2022-12-07T03:15:02;17.97;;;16.17;;
15061;SDS011;7630;50.306;8.566;2022-12-07T03:19:08;18.70;;;15.33;;
15061;SDS011;7630;50.306;8.566;2022-12-07T03:23:11;18.00;;;16.13;;
15061;SDS011;7630;50.306;8.566;2022-12-07T03:27:16;20.93;;;16.63;;
15061;SDS011;7630;50.306;8.566;2022-12-07T03:31:24;17.00;;;15.30;;
15061;SDS011;7630;50.306;8.566;2022-12-07T03:35:31;16.30;;;14.20;;
15061;SDS011;7630;50.306;8.566;2022-12-07T03:44:01;18.27;;;16.23;;
15061;SDS011;7630;50.306;8.566;2022-12-07T03:48:05;25.53;;;16.53;;
15061;SDS011;7630;50.306;8.566;2022-12-07T03:56:30;18.07;;;16.17;;
15061;SDS011;7630;50.306;8.566;2022-12-07T04:00:32;17.27;;;15.50;;
15061;SDS011;7630;50.306;8.566;2022-12-07T04:04:34;16.93;;;14.77;;
15061;SDS011;7630;50.306;8.566;2022-12-07T04:08:35;21.20;;;17.13;;
15061;SDS011;7630;50.306;8.566;2022-12-07T04:12:36;24.77;;;19.70;;
15061;SDS011;7630;50.306;8.566;2022-12-07T04:16:37;21.03;;;18.73;;
15061;SDS011;7630;50.306;8.566;2022-12-07T04:20:40;25.70;;;21.30;;
15061;SDS011;7630;50.306;8.566;2022-12-07T04:24:42;24.50;;;19.73;;
15061;SDS011;7630;50.306;8.566;2022-12-07T04:28:43;20.30;;;17.00;;
15061;SDS011;7630;50.306;8.566;2022-12-07T04:32:44;22.00;;;18.77;;
15061;SDS011;7630;50.306;8.566;2022-12-07T04:36:45;21.23;;;18.93;;
15061;SDS011;7630;50.306;8.566;2022-12-07T04:40:48;23.13;;;17.53;;
15061;SDS011;7630;50.306;8.566;2022-12-07T04:44:49;22.30;;;19.43;;
15061;SDS011;7630;50.306;8.566;2022-12-07T04:48:52;21.37;;;18.83;;
15061;SDS011;7630;50.306;8.566;2022-12-07T04:52:54;20.37;;;18.10;;
15061;SDS011;7630;50.306;8.566;2022-12-07T04:56:55;21.50;;;18.50;;
15061;SDS011;7630;50.306;8.566;2022-12-07T05:00:56;21.87;;;18.67;;
15061;SDS011;7630;50.306;8.566;2022-12-07T05:04:58;21.47;;;17.57;;
15061;SDS011;7630;50.306;8.566;2022-12-07T05:08:59;21.30;;;17.00;;
15061;SDS011;7630;50.306;8.566;2022-12-07T05:13:01;26.27;;;21.77;;
15061;SDS011;7630;50.306;8.566;2022-12-07T05:17:02;23.00;;;20.72;;
15061;SDS011;7630;50.306;8.566;2022-12-07T05:21:03;25.90;;;23.35;;
15061;SDS011;7630;50.306;8.566;2022-12-07T05:25:05;25.52;;;23.07;;
15061;SDS011;7630;50.306;8.566;2022-12-07T05:29:07;24.72;;;22.40;;
15061;SDS011;7630;50.306;8.566;2022-12-07T05:33:10;25.00;;;21.23;;
15061;SDS011;7630;50.306;8.566;2022-12-07T05:37:11;23.33;;;20.40;;
15061;SDS011;7630;50.306;8.566;2022-12-07T05:41:14;26.53;;;22.60;;
15061;SDS011;7630;50.306;8.566;2022-12-07T05:45:36;27.43;;;21.20;;
15061;SDS011;7630;50.306;8.566;2022-12-07T05:49:37;26.33;;;20.63;;
15061;SDS011;7630;50.306;8.566;2022-12-07T05:53:39;28.70;;;25.70;;
15061;SDS011;7630;50.306;8.566;2022-12-07T05:57:40;27.00;;;22.13;;
15061;SDS011;7630;50.306;8.566;2022-12-07T06:01:43;29.10;;;21.97;;
15061;SDS011;7630;50.306;8.566;2022-12-07T06:05:45;23.07;;;20.37;;
15061;SDS011;7630;50.306;8.566;2022-12-07T06:09:46;22.13;;;19.67;;
15061;SDS011;7630;50.306;8.566;2022-12-07T06:13:48;23.87;;;19.32;;
15061;SDS011;7630;50.306;8.566;2022-12-07T06:17:49;23.25;;;20.85;;
15061;SDS011;7630;50.306;8.566;2022-12-07T06:21:51;18.20;;;16.53;;
15061;SDS011;7630;50.306;8.566;2022-12-07T06:25:52;16.87;;;14.87;;
15061;SDS011;7630;50.306;8.566;2022-12-07T06:29:53;17.00;;;14.63;;
15061;SDS011;7630;50.306;8.566;2022-12-07T06:34:01;15.10;;;13.47;;
15061;SDS011;7630;50.306;8.566;2022-12-07T06:38:08;18.43;;;13.70;;
15061;SDS011;7630;50.306;8.566;2022-12-07T06:42:09;15.80;;;14.20;;
15061;SDS011;7630;50.306;8.566;2022-12-07T06:46:10;17.13;;;15.20;;
15061;SDS011;7630;50.306;8.566;2022-12-07T06:50:12;19.63;;;17.30;;
15061;SDS011;7630;50.306;8.566;2022-12-07T06:54:13;21.20;;;18.77;;
15061;SDS011;7630;50.306;8.566;2022-12-07T06:58:16;21.27;;;19.07;;
15061;SDS011;7630;50.306;8.566;2022-12-07T07:02:18;20.53;;;17.47;;
15061;SDS011;7630;50.306;8.566;2022-12-07T07:06:19;20.07;;;17.83;;
15061;SDS011;7630;50.306;8.566;2022-12-07T07:10:21;23.30;;;20.63;;
15061;SDS011;7630;50.306;8.566;2022-12-07T07:14:22;18.93;;;16.87;;
15061;SDS011;7630;50.306;8.566;2022-12-07T07:18:24;19.30;;;17.30;;
15061;SDS011;7630;50.306;8.566;2022-12-07T07:22:26;22.50;;;17.17;;
15061;SDS011;7630;50.306;8.566;2022-12-07T07:26:27;23.90;;;19.57;;
15061;SDS011;7630;50.306;8.566;2022-12-07T07:30:28;20.03;;;18.07;;
15061;SDS011;7630;50.306;8.566;2022-12-07T07:34:30;20.20;;;18.20;;
15061;SDS011;7630;50.306;8.566;2022-12-07T07:38:31;20.80;;;18.70;;
15061;SDS011;7630;50.306;8.566;2022-12-07T07:42:33;20.50;;;18.40;;
15061;SDS011;7630;50.306;8.566;2022-12-07T07:46:34;19.80;;;17.77;;
15061;SDS011;7630;50.306;8.566;2022-12-07T07:50:35;20.30;;;18.20;;
15061;SDS011;7630;50.306;8.566;2022-12-07T07:54:37;21.73;;;19.27;;
15061;SDS011;7630;50.306;8.566;2022-12-07T07:58:38;20.80;;;18.57;;
15061;SDS011;7630;50.306;8.566;2022-12-07T08:02:40;23.03;;;18.27;;
15061;SDS011;7630;50.306;8.566;2022-12-07T08:06:43;20.40;;;17.17;;
15061;SDS011;7630;50.306;8.566;2022-12-07T08:10:44;19.87;;;17.83;;
15061;SDS011;7630;50.306;8.566;2022-12-07T08:14:46;19.87;;;17.77;;
15061;SDS011;7630;50.306;8.566;2022-12-07T08:18:47;17.20;;;14.33;;
15061;SDS011;7630;50.306;8.566;2022-12-07T08:22:49;19.50;;;16.10;;
15061;SDS011;7630;50.306;8.566;2022-12-07T08:26:50;18.00;;;15.83;;
15061;SDS011;7630;50.306;8.566;2022-12-07T08:30:51;17.60;;;15.80;;
15061;SDS011;7630;50.306;8.566;2022-12-07T08:34:52;15.20;;;13.77;;
15061;SDS011;7630;50.306;8.566;2022-12-07T08:38:54;14.23;;;12.73;;
15061;SDS011;7630;50.306;8.566;2022-12-07T08:42:57;16.77;;;14.13;;
15061;SDS011;7630;50.306;8.566;2022-12-07T08:46:59;14.93;;;13.47;;
15061;SDS011;7630;50.306;8.566;2022-12-07T08:51:03;15.93;;;12.27;;
15061;SDS011;7630;50.306;8.566;2022-12-07T08:55:05;14.57;;;13.07;;
15061;SDS011;7630;50.306;8.566;2022-12-07T08:59:07;19.30;;;13.43;;
15061;SDS011;7630;50.306;8.566;2022-12-07T09:03:09;13.37;;;12.07;;
15061;SDS011;7630;50.306;8.566;2022-12-07T09:07:10;14.73;;;11.47;;
15061;SDS011;7630;50.306;8.566;2022-12-07T09:11:12;12.60;;;10.47;;
15061;SDS011;7630;50.306;8.566;2022-12-07T09:15:13;13.57;;;11.60;;
15061;SDS011;7630;50.306;8.566;2022-12-07T09:19:15;11.90;;;10.50;;
15061;SDS011;7630;50.306;8.566;2022-12-07T09:23:16;11.10;;;10.07;;
15061;SDS011;7630;50.306;8.566;2022-12-07T09:27:17;11.83;;;10.73;;
15061;SDS011;7630;50.306;8.566;2022-12-07T09:31:19;13.87;;;11.13;;
15061;SDS011;7630;50.306;8.566;2022-12-07T09:35:22;11.53;;;9.77;;
15061;SDS011;7630;50.306;8.566;2022-12-07T09:39:25;9.97;;;8.40;;
15061;SDS011;7630;50.306;8.566;2022-12-07T09:43:27;10.17;;;9.10;;
15061;SDS011;7630;50.306;8.566;2022-12-07T09:47:29;11.30;;;7.27;;
15061;SDS011;7630;50.306;8.566;2022-12-07T09:51:30;10.07;;;8.50;;
15061;SDS011;7630;50.306;8.566;2022-12-07T09:55:33;9.50;;;8.50;;
15061;SDS011;7630;50.306;8.566;2022-12-07T09:59:35;11.40;;;9.83;;
15061;SDS011;7630;50.306;8.566;2022-12-07T10:03:37;13.23;;;10.53;;
15061;SDS011;7630;50.306;8.566;2022-12-07T10:07:41;13.73;;;10.47;;
15061;SDS011;7630;50.306;8.566;2022-12-07T10:12:02;9.97;;;9.03;;
15061;SDS011;7630;50.306;8.566;2022-12-07T10:20:36;16.63;;;10.87;;
15061;SDS011;7630;50.306;8.566;2022-12-07T10:24:41;14.07;;;11.40;;
15061;SDS011;7630;50.306;8.566;2022-12-07T10:28:43;12.03;;;9.70;;
15061;SDS011;7630;50.306;8.566;2022-12-07T10:32:45;10.57;;;9.50;;
15061;SDS011;7630;50.306;8.566;2022-12-07T10:36:46;16.33;;;8.83;;
15061;SDS011;7630;50.306;8.566;2022-12-07T10:40:47;13.90;;;9.87;;
15061;SDS011;7630;50.306;8.566;2022-12-07T10:53:44;11.57;;;7.70;;
15061;SDS011;7630;50.306;8.566;2022-12-07T10:57:51;10.53;;;8.07;;
15061;SDS011;7630;50.306;8.566;2022-12-07T11:10:57;11.57;;;7.50;;
15061;SDS011;7630;50.306;8.566;2022-12-07T11:19:45;8.67;;;7.53;;
15061;SDS011;7630;50.306;8.566;2022-12-07T11:23:33;8.33;;;7.43;;
15061;SDS011;7630;50.306;8.566;2022-12-07T11:27:37;8.73;;;7.87;;
15061;SDS011;7630;50.306;8.566;2022-12-07T11:31:53;8.60;;;7.90;;
15061;SDS011;7630;50.306;8.566;2022-12-07T11:49:09;13.77;;;7.30;;
15061;SDS011;7630;50.306;8.566;2022-12-07T11:53:22;9.03;;;8.23;;
15061;SDS011;7630;50.306;8.566;2022-12-07T11:57:28;9.77;;;8.70;;
15061;SDS011;7630;50.306;8.566;2022-12-07T12:05:39;11.67;;;8.50;;
15061;SDS011;7630;50.306;8.566;2022-12-07T12:09:43;13.77;;;8.87;;
15061;SDS011;7630;50.306;8.566;2022-12-07T12:18:10;5.77;;;5.23;;
15061;SDS011;7630;50.306;8.566;2022-12-07T12:22:15;5.83;;;5.20;;
15061;SDS011;7630;50.306;8.566;2022-12-07T12:26:23;6.50;;;5.83;;
15061;SDS011;7630;50.306;8.566;2022-12-07T12:34:39;10.00;;;8.63;;
15061;SDS011;7630;50.306;8.566;2022-12-07T12:56:23;9.47;;;8.57;;
15061;SDS011;7630;50.306;8.566;2022-12-07T13:00:30;11.40;;;7.80;;
15061;SDS011;7630;50.306;8.566;2022-12-07T13:08:53;11.73;;;8.50;;
15061;SDS011;7630;50.306;8.566;2022-12-07T13:25:48;10.70;;;9.13;;
15061;SDS011;7630;50.306;8.566;2022-12-07T13:30:04;9.50;;;7.70;;
15061;SDS011;7630;50.306;8.566;2022-12-07T13:38:40;8.93;;;8.03;;
15061;SDS011;7630;50.306;8.566;2022-12-07T13:42:45;10.20;;;8.43;;
15061;SDS011;7630;50.306;8.566;2022-12-07T13:46:49;11.63;;;8.70;;
15061;SDS011;7630;50.306;8.566;2022-12-07T13:50:55;11.40;;;8.30;;
15061;SDS011;7630;50.306;8.566;2022-12-07T13:55:06;8.67;;;6.77;;
15061;SDS011;7630;50.306;8.566;2022-12-07T13:59:04;9.03;;;7.13;;
15061;SDS011;7630;50.306;8.566;2022-12-07T14:07:19;7.97;;;7.00;;
15061;SDS011;7630;50.306;8.566;2022-12-07T14:11:23;11.63;;;6.90;;
15061;SDS011;7630;50.306;8.566;2022-12-07T14:15:27;10.43;;;9.27;;
15061;SDS011;7630;50.306;8.566;2022-12-07T14:28:28;7.90;;;6.13;;
15061;SDS011;7630;50.306;8.566;2022-12-07T14:32:31;10.47;;;5.97;;
15061;SDS011;7630;50.306;8.566;2022-12-07T14:36:35;10.50;;;6.77;;
15061;SDS011;7630;50.306;8.566;2022-12-07T14:40:36;12.87;;;6.73;;
15061;SDS011;7630;50.306;8.566;2022-12-07T14:44:39;9.60;;;6.33;;
15061;SDS011;7630;50.306;8.566;2022-12-07T14:48:41;12.17;;;9.03;;
15061;SDS011;7630;50.306;8.566;2022-12-07T14:52:46;8.87;;;7.23;;
15061;SDS011;7630;50.306;8.566;2022-12-07T14:56:51;11.57;;;7.13;;
15061;SDS011;7630;50.306;8.566;2022-12-07T15:00:53;10.43;;;6.80;;
15061;SDS011;7630;50.306;8.566;2022-12-07T15:04:54;17.47;;;9.40;;
15061;SDS011;7630;50.306;8.566;2022-12-07T15:08:56;15.17;;;12.97;;
15061;SDS011;7630;50.306;8.566;2022-12-07T15:12:58;8.77;;;7.67;;
15061;SDS011;7630;50.306;8.566;2022-12-07T15:17:03;15.20;;;10.73;;
15061;SDS011;7630;50.306;8.566;2022-12-07T15:21:10;12.80;;;10.03;;
15061;SDS011;7630;50.306;8.566;2022-12-07T15:25:14;11.10;;;9.83;;
15061;SDS011;7630;50.306;8.566;2022-12-07T15:29:15;13.20;;;11.53;;
15061;SDS011;7630;50.306;8.566;2022-12-07T15:33:19;14.63;;;10.38;;
15061;SDS011;7630;50.306;8.566;2022-12-07T15:37:21;22.33;;;11.10;;
15061;SDS011;7630;50.306;8.566;2022-12-07T15:41:23;11.23;;;10.13;;
15061;SDS011;7630;50.306;8.566;2022-12-07T15:45:25;14.53;;;9.93;;
15061;SDS011;7630;50.306;8.566;2022-12-07T15:49:26;10.70;;;7.67;;
15061;SDS011;7630;50.306;8.566;2022-12-07T15:53:28;15.17;;;11.60;;
15061;SDS011;7630;50.306;8.566;2022-12-07T15:57:30;15.93;;;13.30;;
15061;SDS011;7630;50.306;8.566;2022-12-07T16:01:32;11.87;;;8.77;;
15061;SDS011;7630;50.306;8.566;2022-12-07T16:05:34;9.13;;;7.93;;
15061;SDS011;7630;50.306;8.566;2022-12-07T16:09:35;16.80;;;9.67;;
15061;SDS011;7630;50.306;8.566;2022-12-07T16:13:37;10.67;;;9.70;;
15061;SDS011;7630;50.306;8.566;2022-12-07T16:17:39;13.30;;;11.50;;
15061;SDS011;7630;50.306;8.566;2022-12-07T16:21:41;17.17;;;11.47;;
15061;SDS011;7630;50.306;8.566;2022-12-07T16:25:42;15.70;;;11.97;;
15061;SDS011;7630;50.306;8.566;2022-12-07T16:29:44;12.13;;;10.83;;
15061;SDS011;7630;50.306;8.566;2022-12-07T16:33:46;15.03;;;12.13;;
15061;SDS011;7630;50.306;8.566;2022-12-07T16:37:47;12.97;;;11.13;;
15061;SDS011;7630;50.306;8.566;2022-12-07T16:41:49;16.82;;;14.95;;
15061;SDS011;7630;50.306;8.566;2022-12-07T16:45:50;13.93;;;12.53;;
15061;SDS011;7630;50.306;8.566;2022-12-07T16:49:52;14.27;;;12.70;;
15061;SDS011;7630;50.306;8.566;2022-12-07T16:53:53;16.20;;;14.50;;
15061;SDS011;7630;50.306;8.566;2022-12-07T16:57:54;17.80;;;15.93;;
15061;SDS011;7630;50.306;8.566;2022-12-07T17:01:57;15.77;;;14.03;;
15061;SDS011;7630;50.306;8.566;2022-12-07T17:05:58;20.03;;;16.17;;
15061;SDS011;7630;50.306;8.566;2022-12-07T17:09:59;19.07;;;14.73;;
15061;SDS011;7630;50.306;8.566;2022-12-07T17:14:01;17.47;;;12.93;;
15061;SDS011;7630;50.306;8.566;2022-12-07T17:18:21;19.13;;;15.37;;
15061;SDS011;7630;50.306;8.566;2022-12-07T17:22:22;17.90;;;11.97;;
15061;SDS011;7630;50.306;8.566;2022-12-07T17:26:24;16.03;;;12.10;;
15061;SDS011;7630;50.306;8.566;2022-12-07T17:30:28;17.43;;;12.77;;
15061;SDS011;7630;50.306;8.566;2022-12-07T17:34:29;13.30;;;12.00;;
15061;SDS011;7630;50.306;8.566;2022-12-07T17:38:31;15.07;;;13.03;;
15061;SDS011;7630;50.306;8.566;2022-12-07T17:42:32;17.67;;;11.93;;
15061;SDS011;7630;50.306;8.566;2022-12-07T17:46:36;14.78;;;13.10;;
15061;SDS011;7630;50.306;8.566;2022-12-07T17:50:39;15.40;;;12.15;;
15061;SDS011;7630;50.306;8.566;2022-12-07T17:54:58;12.43;;;11.13;;
15061;SDS011;7630;50.306;8.566;2022-12-07T17:59:00;13.37;;;11.13;;
15061;SDS011;7630;50.306;8.566;2022-12-07T18:03:06;15.07;;;12.37;;
15061;SDS011;7630;50.306;8.566;2022-12-07T18:07:08;15.30;;;13.17;;
15061;SDS011;7630;50.306;8.566;2022-12-07T18:11:10;15.30;;;12.90;;
15061;SDS011;7630;50.306;8.566;2022-12-07T18:15:11;16.20;;;11.93;;
15061;SDS011;7630;50.306;8.566;2022-12-07T18:19:12;12.30;;;11.18;;
15061;SDS011;7630;50.306;8.566;2022-12-07T18:23:14;11.63;;;10.43;;
15061;SDS011;7630;50.306;8.566;2022-12-07T18:27:15;10.30;;;8.80;;
15061;SDS011;7630;50.306;8.566;2022-12-07T18:31:16;11.80;;;9.87;;
15061;SDS011;7630;50.306;8.566;2022-12-07T18:35:18;15.43;;;9.83;;
15061;SDS011;7630;50.306;8.566;2022-12-07T18:39:19;14.30;;;11.27;;
15061;SDS011;7630;50.306;8.566;2022-12-07T18:43:21;15.07;;;10.67;;
15061;SDS011;7630;50.306;8.566;2022-12-07T18:47:24;9.67;;;8.77;;
15061;SDS011;7630;50.306;8.566;2022-12-07T18:51:26;9.23;;;7.90;;
15061;SDS011;7630;50.306;8.566;2022-12-07T18:55:31;9.50;;;7.53;;
15061;SDS011;7630;50.306;8.566;2022-12-07T18:59:33;10.30;;;7.47;;
15061;SDS011;7630;50.306;8.566;2022-12-07T19:03:46;11.97;;;7.50;;
15061;SDS011;7630;50.306;8.566;2022-12-07T19:07:48;11.07;;;8.30;;
15061;SDS011;7630;50.306;8.566;2022-12-07T19:11:51;11.07;;;9.30;;
15061;SDS011;7630;50.306;8.566;2022-12-07T19:15:53;18.30;;;8.90;;
15061;SDS011;7630;50.306;8.566;2022-12-07T19:19:54;10.35;;;9.30;;
15061;SDS011;7630;50.306;8.566;2022-12-07T19:23:56;12.83;;;9.63;;
15061;SDS011;7630;50.306;8.566;2022-12-07T19:27:57;12.07;;;10.87;;
15061;SDS011;7630;50.306;8.566;2022-12-07T19:31:59;11.83;;;9.00;;
15061;SDS011;7630;50.306;8.566;2022-12-07T19:36:01;11.97;;;9.67;;
15061;SDS011;7630;50.306;8.566;2022-12-07T19:40:04;11.17;;;9.70;;
15061;SDS011;7630;50.306;8.566;2022-12-07T19:44:08;10.17;;;9.17;;
15061;SDS011;7630;50.306;8.566;2022-12-07T19:48:17;12.27;;;8.90;;
15061;SDS011;7630;50.306;8.566;2022-12-07T19:52:18;15.30;;;11.60;;
15061;SDS011;7630;50.306;8.566;2022-12-07T19:56:19;12.53;;;9.60;;
15061;SDS011;7630;50.306;8.566;2022-12-07T20:00:22;12.10;;;9.43;;
15061;SDS011;7630;50.306;8.566;2022-12-07T20:04:24;17.10;;;9.20;;
15061;SDS011;7630;50.306;8.566;2022-12-07T20:08:27;11.45;;;10.25;;
15061;SDS011;7630;50.306;8.566;2022-12-07T20:12:29;11.80;;;10.03;;
15061;SDS011;7630;50.306;8.566;2022-12-07T20:16:48;13.83;;;9.27;;
15061;SDS011;7630;50.306;8.566;2022-12-07T20:20:57;10.77;;;8.80;;
15061;SDS011;7630;50.306;8.566;2022-12-07T20:24:59;11.63;;;9.67;;
15061;SDS011;7630;50.306;8.566;2022-12-07T20:29:00;11.07;;;9.53;;
15061;SDS011;7630;50.306;8.566;2022-12-07T20:33:09;14.50;;;10.33;;
15061;SDS011;7630;50.306;8.566;2022-12-07T20:37:10;12.63;;;9.67;;
15061;SDS011;7630;50.306;8.566;2022-12-07T20:41:12;14.85;;;13.32;;
15061;SDS011;7630;50.306;8.566;2022-12-07T20:45:33;17.17;;;12.97;;
15061;SDS011;7630;50.306;8.566;2022-12-07T20:49:34;12.23;;;10.97;;
15061;SDS011;7630;50.306;8.566;2022-12-07T20:53:35;14.57;;;11.17;;
15061;SDS011;7630;50.306;8.566;2022-12-07T20:57:37;17.73;;;12.87;;
15061;SDS011;7630;50.306;8.566;2022-12-07T21:01:39;13.50;;;11.13;;
15061;SDS011;7630;50.306;8.566;2022-12-07T21:05:40;12.37;;;10.13;;
15061;SDS011;7630;50.306;8.566;2022-12-07T21:09:46;16.83;;;13.63;;
15061;SDS011;7630;50.306;8.566;2022-12-07T21:13:48;15.50;;;12.93;;
15061;SDS011;7630;50.306;8.566;2022-12-07T21:17:50;15.77;;;14.23;;
15061;SDS011;7630;50.306;8.566;2022-12-07T21:21:51;13.93;;;12.07;;
15061;SDS011;7630;50.306;8.566;2022-12-07T21:25:52;15.72;;;14.13;;
15061;SDS011;7630;50.306;8.566;2022-12-07T21:29:53;14.07;;;12.67;;
15061;SDS011;7630;50.306;8.566;2022-12-07T21:33:55;15.53;;;12.33;;
15061;SDS011;7630;50.306;8.566;2022-12-07T21:37:56;16.97;;;13.43;;
15061;SDS011;7630;50.306;8.566;2022-12-07T21:41:57;15.27;;;13.33;;
15061;SDS011;7630;50.306;8.566;2022-12-07T21:45:59;22.27;;;12.93;;
15061;SDS011;7630;50.306;8.566;2022-12-07T21:50:00;16.47;;;13.23;;
15061;SDS011;7630;50.306;8.566;2022-12-07T21:54:02;15.23;;;13.77;;
15061;SDS011;7630;50.306;8.566;2022-12-07T21:58:04;13.63;;;12.23;;
15061;SDS011;7630;50.306;8.566;2022-12-07T22:02:07;16.73;;;14.87;;
15061;SDS011;7630;50.306;8.566;2022-12-07T22:06:14;23.87;;;15.27;;
15061;SDS011;7630;50.306;8.566;2022-12-07T22:10:16;16.67;;;13.03;;
15061;SDS011;7630;50.306;8.566;2022-12-07T22:14:19;16.80;;;13.70;;
15061;SDS011;7630;50.306;8.566;2022-12-07T22:18:39;16.17;;;13.23;;
15061;SDS011;7630;50.306;8.566;2022-12-07T22:22:40;17.77;;;13.33;;
15061;SDS011;7630;50.306;8.566;2022-12-07T22:26:41;16.47;;;13.63;;
15061;SDS011;7630;50.306;8.566;2022-12-07T22:30:43;17.47;;;14.20;;
15061;SDS011;7630;50.306;8.566;2022-12-07T22:34:45;19.40;;;15.63;;
15061;SDS011;7630;50.306;8.566;2022-12-07T22:38:46;18.53;;;14.83;;
15061;SDS011;7630;50.306;8.566;2022-12-07T22:42:48;19.97;;;13.00;;
15061;SDS011;7630;50.306;8.566;2022-12-07T22:46:49;16.17;;;13.27;;
15061;SDS011;7630;50.306;8.566;2022-12-07T22:50:51;13.43;;;12.03;;
15061;SDS011;7630;50.306;8.566;2022-12-07T22:54:53;14.77;;;13.13;;
15061;SDS011;7630;50.306;8.566;2022-12-07T22:58:54;17.23;;;13.43;;
15061;SDS011;7630;50.306;8.566;2022-12-07T23:02:56;18.30;;;14.13;;
15061;SDS011;7630;50.306;8.566;2022-12-07T23:06:58;15.03;;;13.50;;
15061;SDS011;7630;50.306;8.566;2022-12-07T23:11:00;16.17;;;13.83;;
15061;SDS011;7630;50.306;8.566;2022-12-07T23:15:02;16.03;;;13.23;;
15061;SDS011;7630;50.306;8.566;2022-12-07T23:19:05;19.63;;;14.43;;
15061;SDS011;7630;50.306;8.566;2022-12-07T23:23:06;15.03;;;13.47;;
15061;SDS011;7630;50.306;8.566;2022-12-07T23:27:08;19.33;;;14.07;;
15061;SDS011;7630;50.306;8.566;2022-12-07T23:31:10;15.73;;;13.90;;
15061;SDS011;7630;50.306;8.566;2022-12-07T23:35:13;18.33;;;13.77;;
15061;SDS011;7630;50.306;8.566;2022-12-07T23:39:15;14.57;;;11.60;;
15061;SDS011;7630;50.306;8.566;2022-12-07T23:43:16;14.13;;;12.63;;
15061;SDS011;7630;50.306;8.566;2022-12-07T23:47:17;14.43;;;12.93;;
15061;SDS011;7630;50.306;8.566;2022-12-07T23:51:19;15.00;;;12.80;;
15061;SDS011;7630;50.306;8.566;2022-12-07T23:55:20;14.50;;;12.53;;
15061;SDS011;7630;50.306;8.566;2022-12-07T23:59:24;14.87;;;12.53;;
